Time;durP1;ratioP1;P1;durP2;ratioP2;P2;SDS_P1;SDS_P2;PMS_P1;PMS_P2;Temp;Humidity;BMP_temperature;BMP_pressure;BME280_temperature;BME280_humidity;BME280_pressure;Samples;Min_cycle;Max_cycle;Signal;HPM_P1;HPM_P2
2021/09/17 00:01:51;;;;;;;24.05;21.52;;;15.60;99.90;;;;;;4937623;29;20433;-73
2021/09/17 00:04:17;;;;;;;26.67;23.33;;;15.60;99.90;;;;;;4936544;29;20043;-74
2021/09/17 00:06:42;;;;;;;26.25;23.55;;;15.60;99.90;;;;;;4935876;29;20059;-75
2021/09/17 00:09:08;;;;;;;28.23;24.50;;;15.60;99.90;;;;;;4936996;29;20039;-73
2021/09/17 00:11:33;;;;;;;26.20;23.48;;;15.70;99.90;;;;;;4935596;29;20377;-73
2021/09/17 00:14:00;;;;;;;24.95;22.40;;;15.70;99.90;;;;;;4937023;29;20062;-73
2021/09/17 00:16:26;;;;;;;24.95;22.48;;;15.70;99.90;;;;;;4937173;29;20027;-73
2021/09/17 00:18:52;;;;;;;25.17;22.55;;;15.70;99.90;;;;;;4936403;29;20031;-73
2021/09/17 00:21:17;;;;;;;22.67;20.30;;;15.70;99.90;;;;;;4936940;29;20381;-74
2021/09/17 00:23:43;;;;;;;24.50;22.00;;;15.70;99.90;;;;;;4935929;29;20049;-75
2021/09/17 00:26:08;;;;;;;23.67;21.25;;;15.70;99.90;;;;;;4934933;29;20119;-75
2021/09/17 00:28:34;;;;;;;25.52;22.83;;;15.80;99.90;;;;;;4935632;29;20387;-75
2021/09/17 00:31:00;;;;;;;26.17;23.13;;;15.70;99.90;;;;;;4936412;29;20407;-75
2021/09/17 00:33:25;;;;;;;24.95;22.30;;;15.70;99.90;;;;;;4934870;29;20024;-75
2021/09/17 00:35:51;;;;;;;24.27;21.77;;;15.80;99.90;;;;;;4935600;29;20055;-75
2021/09/17 00:38:17;;;;;;;24.48;21.92;;;15.80;99.90;;;;;;4935668;29;20078;-75
2021/09/17 00:40:42;;;;;;;25.60;22.90;;;15.80;99.90;;;;;;4936594;29;20028;-75
2021/09/17 00:43:08;;;;;;;30.58;27.27;;;15.80;99.90;;;;;;4936508;29;20483;-78
2021/09/17 00:45:34;;;;;;;27.05;24.00;;;15.80;99.90;;;;;;4936020;29;20028;-75
2021/09/17 00:48:00;;;;;;;25.67;22.85;;;15.80;99.90;;;;;;4936285;29;20032;-75
2021/09/17 00:50:25;;;;;;;25.38;22.70;;;15.80;99.90;;;;;;4936361;29;20036;-76
2021/09/17 00:52:51;;;;;;;25.88;23.05;;;15.90;99.90;;;;;;4936041;29;20034;-75
2021/09/17 00:55:18;;;;;;;32.65;29.13;;;15.90;99.90;;;;;;4936254;29;20382;-75
2021/09/17 00:57:44;;;;;;;30.70;27.10;;;15.90;99.90;;;;;;4936430;29;20027;-75
2021/09/17 01:00:12;;;;;;;29.80;26.60;;;15.90;99.90;;;;;;4935342;29;20043;-77
2021/09/17 01:02:38;;;;;;;28.90;24.65;;;15.90;99.90;;;;;;4936387;29;20020;-76
2021/09/17 01:05:06;;;;;;;27.35;24.42;;;15.90;99.90;;;;;;4935962;29;20464;-75
2021/09/17 01:07:32;;;;;;;28.55;25.52;;;15.90;99.90;;;;;;4950476;29;20511;-74
2021/09/17 01:09:58;;;;;;;28.42;24.52;;;16.00;99.90;;;;;;4934372;29;20064;-75
2021/09/17 01:12:24;;;;;;;26.52;23.67;;;16.00;99.90;;;;;;4936390;29;20035;-75
2021/09/17 01:14:50;;;;;;;26.30;23.55;;;16.00;99.90;;;;;;4935474;29;20036;-75
2021/09/17 01:17:17;;;;;;;27.05;24.15;;;16.00;99.90;;;;;;4935377;29;20032;-76
2021/09/17 01:19:43;;;;;;;25.10;22.50;;;16.00;99.90;;;;;;4935896;29;20122;-75
2021/09/17 01:22:10;;;;;;;25.80;23.17;;;16.00;99.90;;;;;;4933796;29;20115;-77
2021/09/17 01:24:37;;;;;;;25.42;22.80;;;16.00;99.90;;;;;;4934900;29;20030;-76
2021/09/17 01:27:03;;;;;;;25.17;22.30;;;16.00;99.90;;;;;;4935723;29;20020;-75
2021/09/17 01:29:29;;;;;;;25.40;22.80;;;16.00;99.90;;;;;;4935193;29;20033;-77
2021/09/17 01:31:55;;;;;;;28.08;23.73;;;16.00;99.90;;;;;;4935465;29;20121;-76
2021/09/17 01:34:23;;;;;;;30.40;23.77;;;16.00;99.90;;;;;;4935701;29;20051;-76
2021/09/17 01:36:50;;;;;;;29.70;23.30;;;16.00;99.90;;;;;;4934715;29;20090;-76
2021/09/17 01:39:17;;;;;;;29.83;24.98;;;16.00;99.90;;;;;;4935290;29;20035;-76
2021/09/17 01:41:43;;;;;;;28.45;25.20;;;16.00;99.90;;;;;;4934971;29;20027;-76
2021/09/17 01:44:08;;;;;;;27.73;24.73;;;16.00;99.90;;;;;;4935462;29;20026;-75
2021/09/17 01:46:34;;;;;;;28.48;24.85;;;16.00;99.90;;;;;;4935363;29;20036;-75
2021/09/17 01:48:59;;;;;;;28.48;24.42;;;16.00;99.90;;;;;;4934674;29;20027;-76
2021/09/17 01:51:25;;;;;;;28.73;25.42;;;16.00;99.90;;;;;;4934221;29;20050;-75
2021/09/17 01:53:51;;;;;;;25.77;23.05;;;16.00;99.90;;;;;;4934324;29;20071;-76
2021/09/17 01:56:16;;;;;;;29.25;25.08;;;16.00;99.90;;;;;;4933136;29;20105;-76
2021/09/17 01:58:42;;;;;;;27.30;24.15;;;16.00;99.90;;;;;;4935387;29;20039;-76
2021/09/17 02:01:08;;;;;;;27.05;24.10;;;16.00;99.90;;;;;;4935173;29;20020;-77
2021/09/17 02:03:34;;;;;;;29.17;24.13;;;16.00;99.90;;;;;;4933482;29;20020;-76
2021/09/17 02:06:00;;;;;;;27.23;23.40;;;16.00;99.90;;;;;;4934950;29;20027;-77
2021/09/17 02:08:25;;;;;;;29.00;25.92;;;16.00;99.90;;;;;;4934082;29;20067;-75
2021/09/17 02:10:51;;;;;;;28.25;25.15;;;16.00;99.90;;;;;;4934715;29;20071;-78
2021/09/17 02:13:20;;;;;;;27.15;24.15;;;16.00;99.90;;;;;;4933753;29;20034;-76
2021/09/17 02:15:47;;;;;;;28.00;24.90;;;16.00;99.90;;;;;;4935364;29;20031;-76
2021/09/17 02:18:13;;;;;;;28.88;25.40;;;16.00;99.90;;;;;;4948937;29;20848;-76
2021/09/17 02:20:38;;;;;;;28.10;25.08;;;16.00;99.90;;;;;;4933890;29;20032;-76
2021/09/17 02:23:04;;;;;;;29.50;25.42;;;16.00;99.90;;;;;;4933812;29;20383;-76
2021/09/17 02:25:30;;;;;;;32.22;28.05;;;16.00;99.90;;;;;;4934369;29;20039;-75
2021/09/17 02:27:55;;;;;;;29.55;26.02;;;16.00;99.90;;;;;;4933635;29;20550;-76
2021/09/17 02:30:21;;;;;;;29.88;26.05;;;16.00;99.90;;;;;;4936890;29;20047;-76
2021/09/17 02:32:47;;;;;;;29.50;26.00;;;16.00;99.90;;;;;;4938303;29;20140;-75
2021/09/17 02:35:13;;;;;;;31.33;26.70;;;16.00;99.90;;;;;;4937421;29;20020;-76
2021/09/17 02:37:39;;;;;;;30.38;25.67;;;16.00;99.90;;;;;;4939082;29;20107;-75
2021/09/17 02:40:06;;;;;;;30.13;26.63;;;16.00;99.90;;;;;;4952977;29;20031;-75
2021/09/17 02:42:32;;;;;;;28.35;25.35;;;16.00;99.90;;;;;;4939089;29;20062;-76
2021/09/17 02:44:57;;;;;;;30.88;27.50;;;16.00;99.90;;;;;;4937771;29;20056;-78
2021/09/17 02:47:23;;;;;;;31.08;27.70;;;16.00;99.90;;;;;;4938819;29;20031;-75
2021/09/17 02:49:48;;;;;;;28.92;25.05;;;16.00;99.90;;;;;;4937473;29;20031;-76
2021/09/17 02:52:14;;;;;;;29.90;25.52;;;16.00;99.90;;;;;;4937920;29;20481;-75
2021/09/17 02:54:39;;;;;;;28.52;25.50;;;16.00;99.90;;;;;;4938603;29;20059;-75
2021/09/17 02:57:05;;;;;;;27.65;24.65;;;16.00;99.90;;;;;;4938479;29;20062;-75
2021/09/17 02:59:31;;;;;;;28.15;25.05;;;16.00;99.90;;;;;;4937864;29;20040;-76
2021/09/17 03:01:56;;;;;;;29.30;25.35;;;16.00;99.90;;;;;;4938331;29;20032;-76
2021/09/17 03:04:22;;;;;;;30.98;26.98;;;16.00;99.90;;;;;;4938568;29;20492;-76
2021/09/17 03:06:47;;;;;;;28.10;25.08;;;16.00;99.90;;;;;;4936914;29;20443;-75
2021/09/17 03:09:13;;;;;;;28.55;25.48;;;16.00;99.90;;;;;;4936761;29;20038;-75
2021/09/17 03:11:38;;;;;;;30.42;27.15;;;16.00;99.90;;;;;;4938580;29;20055;-75
2021/09/17 03:14:04;;;;;;;29.52;26.33;;;16.00;99.90;;;;;;4935831;29;20031;-75
2021/09/17 03:16:29;;;;;;;33.58;27.23;;;16.00;99.90;;;;;;4938359;29;20047;-75
2021/09/17 03:18:55;;;;;;;32.28;27.92;;;16.00;99.90;;;;;;4936115;29;20040;-74
2021/09/17 03:21:21;;;;;;;30.80;27.42;;;16.00;99.90;;;;;;4937888;29;20035;-75
2021/09/17 03:23:46;;;;;;;30.75;26.15;;;16.00;99.90;;;;;;4938220;29;20082;-75
2021/09/17 03:26:12;;;;;;;28.92;25.67;;;16.00;99.90;;;;;;4936401;29;20118;-75
2021/09/17 03:28:38;;;;;;;28.13;25.10;;;16.00;99.90;;;;;;4937108;29;20388;-75
2021/09/17 03:31:03;;;;;;;29.13;25.80;;;16.00;99.90;;;;;;4936329;29;20054;-78
2021/09/17 03:33:29;;;;;;;28.77;25.65;;;16.00;99.90;;;;;;4938076;29;20066;-76
2021/09/17 03:35:54;;;;;;;28.42;25.38;;;15.90;99.90;;;;;;4936902;29;20477;-75
2021/09/17 03:38:20;;;;;;;28.83;25.73;;;15.90;99.90;;;;;;4937864;29;20071;-76
2021/09/17 03:40:47;;;;;;;29.27;26.15;;;15.90;99.90;;;;;;4937320;29;20034;-75
2021/09/17 03:43:15;;;;;;;29.15;25.83;;;15.90;99.90;;;;;;4936979;29;20054;-76
2021/09/17 03:45:41;;;;;;;27.58;24.70;;;15.90;99.90;;;;;;4937924;29;20031;-76
2021/09/17 03:48:09;;;;;;;27.88;24.67;;;15.90;99.90;;;;;;4936682;29;20028;-75
2021/09/17 03:50:35;;;;;;;28.60;25.42;;;15.90;99.90;;;;;;4952295;29;20489;-75
2021/09/17 03:53:01;;;;;;;27.65;24.58;;;15.90;99.90;;;;;;4937389;29;20023;-75
2021/09/17 03:55:27;;;;;;;28.27;24.90;;;15.90;99.90;;;;;;4935931;29;20106;-77
2021/09/17 03:57:53;;;;;;;29.67;26.48;;;15.90;99.90;;;;;;4937514;29;20457;-77
2021/09/17 04:00:19;;;;;;;30.00;26.80;;;15.90;99.90;;;;;;4936326;29;20043;-76
2021/09/17 04:02:45;;;;;;;28.77;25.63;;;15.90;99.90;;;;;;4936826;29;20019;-77
2021/09/17 04:05:10;;;;;;;29.30;26.20;;;15.90;99.90;;;;;;4935701;29;20139;-77
2021/09/17 04:07:40;;;;;;;29.23;25.38;;;15.90;99.90;;;;;;4936129;29;20465;-77
2021/09/17 04:10:07;;;;;;;31.45;27.23;;;15.90;99.90;;;;;;4936594;29;20096;-76
2021/09/17 04:12:33;;;;;;;35.75;27.45;;;15.90;99.90;;;;;;4937160;29;20123;-76
2021/09/17 04:14:59;;;;;;;31.25;27.90;;;15.90;99.90;;;;;;4935465;29;20114;-75
2021/09/17 04:17:25;;;;;;;31.20;27.83;;;15.90;99.90;;;;;;4936608;29;20476;-78
2021/09/17 04:19:51;;;;;;;32.63;28.95;;;15.90;99.90;;;;;;4936892;29;20035;-78
2021/09/17 04:22:16;;;;;;;32.05;27.58;;;15.90;99.90;;;;;;4935656;29;20027;-78
2021/09/17 04:24:42;;;;;;;31.27;27.95;;;15.90;99.90;;;;;;4935310;29;20110;-79
2021/09/17 04:27:07;;;;;;;31.80;27.30;;;15.90;99.90;;;;;;4935780;29;20035;-78
2021/09/17 04:29:33;;;;;;;30.88;27.58;;;15.90;99.90;;;;;;4936965;29;20051;-78
2021/09/17 04:31:59;;;;;;;30.75;27.35;;;15.90;99.90;;;;;;4934973;29;20070;-80
2021/09/17 04:34:24;;;;;;;29.38;26.20;;;15.90;99.90;;;;;;4935415;29;20079;-80
2021/09/17 04:36:50;;;;;;;30.27;27.08;;;15.90;99.90;;;;;;4936595;29;20087;-79
2021/09/17 04:39:15;;;;;;;28.95;25.77;;;15.90;99.90;;;;;;4935476;29;20036;-79
2021/09/17 04:41:41;;;;;;;30.17;26.58;;;15.90;99.90;;;;;;4935291;29;20020;-79
2021/09/17 04:44:06;;;;;;;30.30;27.10;;;15.90;99.90;;;;;;4926657;29;20032;-79
2021/09/17 04:46:32;;;;;;;30.20;27.15;;;15.90;99.90;;;;;;4915941;29;20020;-77
2021/09/17 04:48:58;;;;;;;30.00;26.90;;;15.90;99.90;;;;;;4918962;29;20032;-77
2021/09/17 04:51:24;;;;;;;28.95;25.60;;;15.90;99.90;;;;;;4927175;29;20477;-80
2021/09/17 04:53:49;;;;;;;30.33;27.13;;;15.90;99.90;;;;;;4917481;29;20047;-78
2021/09/17 04:56:15;;;;;;;30.45;27.13;;;15.90;99.90;;;;;;4915942;29;20024;-78
2021/09/17 04:58:40;;;;;;;31.25;27.85;;;15.90;99.90;;;;;;4915310;29;20071;-78
2021/09/17 05:01:06;;;;;;;29.33;26.23;;;15.90;99.90;;;;;;4917015;29;20525;-76
2021/09/17 05:03:31;;;;;;;30.67;27.38;;;15.90;99.90;;;;;;4917602;29;20100;-76
2021/09/17 05:05:57;;;;;;;30.77;27.58;;;15.90;99.90;;;;;;4916405;29;20025;-76
2021/09/17 05:08:23;;;;;;;32.83;28.80;;;15.90;99.90;;;;;;4917214;29;20026;-75
2021/09/17 05:10:48;;;;;;;33.53;29.92;;;15.90;99.90;;;;;;4922306;29;20489;-75
2021/09/17 05:13:14;;;;;;;31.52;28.15;;;15.90;99.90;;;;;;4921363;29;20071;-75
2021/09/17 05:15:39;;;;;;;32.45;28.08;;;15.90;99.90;;;;;;4923938;29;20031;-75
2021/09/17 05:18:05;;;;;;;34.97;30.00;;;15.90;99.90;;;;;;4927166;29;20524;-76
2021/09/17 05:20:31;;;;;;;37.08;30.00;;;15.90;99.90;;;;;;4925599;29;20385;-75
2021/09/17 05:22:56;;;;;;;33.83;29.23;;;15.90;99.90;;;;;;4916580;29;20107;-75
2021/09/17 05:25:22;;;;;;;32.75;29.23;;;15.90;99.90;;;;;;4928777;29;20484;-75
2021/09/17 05:27:48;;;;;;;33.92;30.33;;;15.90;99.90;;;;;;4930701;29;20032;-75
2021/09/17 05:30:13;;;;;;;35.03;29.83;;;15.90;99.90;;;;;;4918311;29;20102;-75
2021/09/17 05:32:39;;;;;;;37.97;31.55;;;15.90;99.90;;;;;;4934337;29;20035;-75
2021/09/17 05:35:07;;;;;;;32.47;28.98;;;15.90;99.90;;;;;;4931411;29;20047;-75
2021/09/17 05:37:33;;;;;;;34.38;30.48;;;15.90;99.90;;;;;;4935746;29;20476;-77
2021/09/17 05:39:59;;;;;;;35.45;31.33;;;16.00;99.90;;;;;;4935040;29;20094;-76
2021/09/17 05:42:24;;;;;;;36.67;31.83;;;16.00;99.90;;;;;;4933963;29;20027;-76
2021/09/17 05:44:50;;;;;;;36.30;30.52;;;16.00;99.90;;;;;;4934388;29;20083;-77
2021/09/17 05:47:15;;;;;;;35.67;31.73;;;16.00;99.90;;;;;;4935111;29;20032;-77
2021/09/17 05:49:42;;;;;;;35.25;31.17;;;16.00;99.90;;;;;;4933255;29;20028;-76
2021/09/17 05:52:07;;;;;;;36.28;31.73;;;16.00;99.90;;;;;;4935376;29;20027;-76
2021/09/17 05:54:33;;;;;;;37.28;32.00;;;16.00;99.90;;;;;;4935554;29;20023;-75
2021/09/17 05:57:02;;;;;;;37.45;31.83;;;15.90;99.90;;;;;;4934274;29;20575;-76
2021/09/17 05:59:28;;;;;;;35.17;31.38;;;15.90;99.90;;;;;;4934396;29;20505;-76
2021/09/17 06:01:53;;;;;;;39.70;34.55;;;15.90;99.90;;;;;;4932752;29;20024;-75
2021/09/17 06:04:19;;;;;;;36.10;32.22;;;15.90;99.90;;;;;;4935266;29;20031;-75
2021/09/17 06:06:46;;;;;;;37.33;32.45;;;15.90;99.90;;;;;;4933939;29;20110;-75
2021/09/17 06:09:12;;;;;;;35.97;32.05;;;15.90;99.90;;;;;;4932619;29;20023;-76
2021/09/17 06:11:38;;;;;;;38.88;32.88;;;15.90;99.90;;;;;;4935418;29;20420;-75
2021/09/17 06:14:04;;;;;;;36.70;32.70;;;15.90;99.90;;;;;;4933611;29;20066;-75
2021/09/17 06:16:30;;;;;;;37.30;32.45;;;15.90;99.90;;;;;;4934417;29;20091;-75
2021/09/17 06:19:02;;;;;;;36.83;32.60;;;15.90;99.90;;;;;;4934886;29;20118;-76
2021/09/17 06:21:29;;;;;;;37.30;31.98;;;16.00;99.90;;;;;;4933341;29;20032;-75
2021/09/17 06:23:55;;;;;;;35.85;31.05;;;16.00;99.90;;;;;;4932939;29;20135;-75
2021/09/17 06:26:20;;;;;;;35.17;30.58;;;16.00;99.90;;;;;;4935120;29;20078;-75
2021/09/17 06:28:46;;;;;;;34.08;30.38;;;16.10;99.90;;;;;;4932228;29;20494;-77
2021/09/17 06:31:11;;;;;;;35.55;31.08;;;16.10;99.90;;;;;;4932633;29;20385;-75
2021/09/17 06:33:37;;;;;;;36.65;31.58;;;16.20;99.90;;;;;;4934034;29;20046;-76
2021/09/17 06:36:03;;;;;;;36.42;30.88;;;16.20;99.90;;;;;;4933493;29;20032;-78
2021/09/17 06:38:29;;;;;;;37.03;30.80;;;16.20;99.90;;;;;;4934296;29;20039;-77
2021/09/17 06:40:55;;;;;;;34.90;31.17;;;16.30;99.90;;;;;;4933319;29;20489;-77
2021/09/17 06:43:21;;;;;;;36.75;32.13;;;16.30;99.90;;;;;;4933860;29;20027;-77
2021/09/17 06:45:47;;;;;;;34.15;29.70;;;16.40;99.90;;;;;;4929229;29;20028;-77
2021/09/17 06:48:12;;;;;;;34.92;30.50;;;16.40;99.90;;;;;;4915414;29;20032;-77
2021/09/17 06:50:38;;;;;;;36.55;30.85;;;16.50;99.90;;;;;;4920029;29;20038;-77
2021/09/17 06:53:04;;;;;;;34.72;30.95;;;16.50;99.90;;;;;;4917880;29;20095;-77
2021/09/17 06:55:30;;;;;;;31.85;28.38;;;16.50;99.90;;;;;;4927217;29;20103;-76
2021/09/17 06:58:04;;;;;;;32.55;28.35;;;16.60;99.90;;;;;;4920820;29;20028;-76
2021/09/17 07:00:33;;;;;;;33.15;29.10;;;16.60;99.90;;;;;;4926311;29;20065;-78
2021/09/17 07:02:59;;;;;;;31.75;28.38;;;16.60;99.90;;;;;;4915939;29;20058;-76
2021/09/17 07:05:26;;;;;;;30.88;27.52;;;16.70;99.90;;;;;;4915350;29;20481;-76
2021/09/17 07:07:52;;;;;;;31.10;27.85;;;16.80;99.90;;;;;;4915569;29;20370;-77
2021/09/17 07:10:18;;;;;;;31.17;27.85;;;16.80;99.90;;;;;;4914314;29;20028;-77
2021/09/17 07:12:45;;;;;;;32.05;28.58;;;16.90;99.90;;;;;;4915426;29;20024;-76
2021/09/17 07:15:12;;;;;;;29.45;26.33;;;16.90;99.90;;;;;;4915316;29;20500;-76
2021/09/17 07:17:38;;;;;;;30.50;27.30;;;16.90;99.90;;;;;;4918166;29;20031;-77
2021/09/17 07:20:05;;;;;;;31.58;27.80;;;17.00;99.90;;;;;;4917042;29;20040;-78
2021/09/17 07:22:30;;;;;;;30.10;26.55;;;17.10;99.90;;;;;;4919088;29;20017;-77
2021/09/17 07:24:56;;;;;;;30.30;27.10;;;17.10;99.90;;;;;;4919990;29;20367;-76
2021/09/17 07:27:22;;;;;;;28.10;24.58;;;17.10;99.90;;;;;;4936235;29;20027;-76
2021/09/17 07:29:47;;;;;;;27.98;24.98;;;17.20;99.90;;;;;;4938074;29;20034;-77
2021/09/17 07:32:13;;;;;;;26.65;23.85;;;17.20;99.90;;;;;;4937488;29;20590;-79
2021/09/17 07:34:38;;;;;;;27.15;23.98;;;17.20;99.90;;;;;;4936262;29;20020;-76
2021/09/17 07:37:04;;;;;;;27.65;24.40;;;17.30;99.90;;;;;;4937663;29;20024;-77
2021/09/17 07:39:30;;;;;;;26.40;23.55;;;17.30;99.90;;;;;;4928187;29;20108;-77
2021/09/17 07:41:56;;;;;;;26.10;23.33;;;17.40;99.90;;;;;;4929727;29;20105;-79
2021/09/17 07:44:21;;;;;;;27.52;24.63;;;17.40;99.90;;;;;;4928485;29;20060;-76
2021/09/17 07:46:47;;;;;;;27.48;23.33;;;17.40;99.90;;;;;;4929233;29;20023;-78
2021/09/17 07:49:13;;;;;;;28.02;24.85;;;17.50;99.90;;;;;;4935563;29;20366;-82
2021/09/17 07:51:38;;;;;;;26.70;23.95;;;17.50;99.90;;;;;;4937319;29;20042;-75
2021/09/17 07:54:04;;;;;;;25.75;23.05;;;17.60;99.90;;;;;;4920438;29;20028;-74
2021/09/17 07:56:30;;;;;;;25.25;22.60;;;17.60;99.90;;;;;;4917567;29;20016;-75
2021/09/17 07:58:55;;;;;;;25.27;22.55;;;17.60;99.90;;;;;;4918017;29;20032;-74
2021/09/17 08:01:21;;;;;;;27.60;24.30;;;17.70;99.90;;;;;;4916816;29;20035;-75
2021/09/17 08:03:46;;;;;;;26.77;22.85;;;17.70;99.90;;;;;;4918682;29;20028;-76
2021/09/17 08:06:14;;;;;;;25.00;22.40;;;17.80;99.90;;;;;;4917000;29;20028;-74
2021/09/17 08:08:40;;;;;;;25.80;23.08;;;17.80;99.90;;;;;;4917471;29;20031;-75
2021/09/17 08:11:06;;;;;;;31.67;23.10;;;17.80;99.90;;;;;;4931849;29;20179;-78
2021/09/17 08:13:32;;;;;;;27.75;22.80;;;17.90;99.90;;;;;;4928697;29;20032;-78
2021/09/17 08:15:58;;;;;;;27.70;24.55;;;17.90;99.90;;;;;;4932453;29;20483;-77
2021/09/17 08:18:25;;;;;;;25.13;22.42;;;18.00;99.90;;;;;;4919137;29;20108;-73
2021/09/17 08:20:53;;;;;;;26.13;21.83;;;18.00;99.90;;;;;;4918499;29;20028;-75
2021/09/17 08:23:20;;;;;;;23.88;21.33;;;18.00;99.90;;;;;;4917355;29;20028;-74
2021/09/17 08:25:47;;;;;;;24.52;21.90;;;18.00;99.90;;;;;;4922784;29;20040;-79
2021/09/17 08:28:13;;;;;;;24.80;22.25;;;18.10;99.90;;;;;;4935504;29;20059;-84
2021/09/17 08:30:38;;;;;;;26.40;23.70;;;18.10;99.90;;;;;;4926776;29;20079;-90
2021/09/17 08:33:04;;;;;;;24.38;21.52;;;18.00;99.90;;;;;;4934318;29;20019;-80
2021/09/17 08:35:29;;;;;;;23.95;21.40;;;18.00;99.90;;;;;;4933894;29;20036;-75
2021/09/17 08:37:55;;;;;;;23.63;20.90;;;18.00;99.90;;;;;;4915622;29;20131;-77
2021/09/17 08:40:21;;;;;;;23.48;20.83;;;18.00;99.90;;;;;;4926083;29;20456;-75
2021/09/17 08:42:47;;;;;;;25.02;21.52;;;18.00;99.90;;;;;;4925450;29;20369;-76
2021/09/17 08:45:13;;;;;;;23.98;21.48;;;18.10;99.90;;;;;;4915456;29;20024;-74
2021/09/17 08:47:39;;;;;;;24.73;22.00;;;18.10;99.90;;;;;;4917566;29;20047;-77
2021/09/17 08:50:05;;;;;;;24.48;21.90;;;18.20;99.90;;;;;;4917378;29;20079;-76
2021/09/17 08:52:31;;;;;;;24.45;22.05;;;18.30;99.90;;;;;;4915377;29;20032;-78
2021/09/17 08:54:58;;;;;;;24.48;21.63;;;18.40;99.90;;;;;;4924516;29;20024;-75
2021/09/17 08:57:24;;;;;;;25.80;22.90;;;18.50;99.90;;;;;;4931896;29;20031;-79
2021/09/17 08:59:49;;;;;;;23.73;21.27;;;18.60;99.90;;;;;;4935390;29;20050;-78
2021/09/17 09:02:19;;;;;;;23.85;21.35;;;18.70;99.90;;;;;;4934657;29;20039;-80
2021/09/17 09:04:54;;;;;;;24.65;21.88;;;18.80;99.90;;;;;;4935088;29;20027;-77
2021/09/17 09:07:32;;;;;;;22.70;20.27;;;18.80;99.90;;;;;;4933752;29;20023;-78
2021/09/17 09:10:15;;;;;;;25.95;21.63;;;18.80;99.90;;;;;;4933683;29;20432;-76
2021/09/17 09:12:51;;;;;;;21.58;18.95;;;18.90;99.90;;;;;;4934266;29;20024;-83
2021/09/17 09:15:21;;;;;;;24.90;21.63;;;18.90;99.90;;;;;;4934212;29;20023;-77
2021/09/17 09:17:47;;;;;;;22.73;20.23;;;18.90;99.90;;;;;;4934727;29;20035;-76
2021/09/17 09:20:43;;;;;;;22.17;19.90;;;18.90;99.90;;;;;;4931648;29;20119;-76
2021/09/17 09:23:16;;;;;;;22.85;20.33;;;18.90;99.90;;;;;;4933952;29;20035;-77
2021/09/17 09:26:03;;;;;;;22.77;20.40;;;19.00;99.90;;;;;;4920127;29;20028;-74
2021/09/17 09:28:46;;;;;;;21.67;19.48;;;19.10;99.90;;;;;;4914074;29;20389;-76
2021/09/17 09:31:16;;;;;;;21.88;19.30;;;19.10;99.90;;;;;;4916765;29;20082;-76
2021/09/17 09:33:49;;;;;;;25.00;22.20;;;19.20;99.90;;;;;;4916357;29;20031;-78
2021/09/17 09:36:20;;;;;;;23.05;20.63;;;19.20;99.90;;;;;;4915538;29;20016;-74
2021/09/17 09:38:51;;;;;;;21.27;18.38;;;19.30;99.90;;;;;;4922253;29;20062;-75
2021/09/17 09:41:22;;;;;;;22.08;18.52;;;19.40;99.90;;;;;;4933397;29;20032;-78
2021/09/17 09:44:05;;;;;;;20.13;18.13;;;19.50;99.90;;;;;;4935651;29;20020;-77
2021/09/17 09:46:41;;;;;;;20.25;17.55;;;19.50;99.90;;;;;;4919452;29;20032;-76
2021/09/17 09:49:28;;;;;;;22.17;19.77;;;19.60;99.90;;;;;;4915993;29;20071;-75
2021/09/17 09:51:58;;;;;;;23.42;20.70;;;19.70;99.90;;;;;;4916433;29;20039;-71
2021/09/17 09:54:26;;;;;;;21.30;19.05;;;19.70;99.90;;;;;;4916026;29;20062;-75
2021/09/17 09:56:55;;;;;;;18.33;16.40;;;19.70;99.90;;;;;;4915373;29;20024;-74
2021/09/17 09:59:25;;;;;;;18.83;16.83;;;19.80;99.90;;;;;;4915312;29;20039;-79
2021/09/17 10:01:54;;;;;;;17.10;15.38;;;19.80;99.90;;;;;;4934928;29;20032;-75
2021/09/17 10:04:24;;;;;;;18.17;16.30;;;19.80;99.90;;;;;;4927768;29;20027;-78
2021/09/17 10:07:03;;;;;;;17.20;15.15;;;19.90;99.90;;;;;;4915441;29;20028;-82
2021/09/17 10:09:38;;;;;;;15.80;14.20;;;19.90;99.90;;;;;;4914760;29;20024;-86
2021/09/17 10:12:09;;;;;;;17.38;15.65;;;20.00;99.90;;;;;;4914940;29;20032;-76
2021/09/17 10:14:35;;;;;;;18.30;16.42;;;20.00;99.90;;;;;;4912553;29;20060;-74
2021/09/17 10:17:05;;;;;;;18.15;16.27;;;20.00;99.90;;;;;;4919343;29;20614;-79
2021/09/17 10:19:31;;;;;;;16.52;14.82;;;20.00;99.90;;;;;;4933835;29;20050;-80
2021/09/17 10:22:09;;;;;;;15.75;14.15;;;20.10;99.90;;;;;;4928750;29;20027;-80
2021/09/17 10:24:38;;;;;;;17.45;14.48;;;20.20;99.90;;;;;;4926471;29;20032;-88
2021/09/17 10:27:18;;;;;;;15.40;13.90;;;20.20;99.90;;;;;;4920948;29;20031;-77
2021/09/17 10:30:05;;;;;;;16.80;15.05;;;20.20;99.90;;;;;;4935114;29;20039;-80
2021/09/17 10:32:34;;;;;;;17.60;15.80;;;20.30;99.90;;;;;;4933320;29;20051;-81
2021/09/17 10:35:20;;;;;;;18.67;16.85;;;20.30;99.90;;;;;;4933276;29;20036;-82
2021/09/17 10:38:16;;;;;;;17.73;15.95;;;20.40;99.90;;;;;;4933739;29;20027;-81
2021/09/17 10:41:02;;;;;;;17.83;15.65;;;20.30;99.90;;;;;;4935161;29;20055;-79
2021/09/17 10:43:29;;;;;;;18.00;16.20;;;20.40;99.90;;;;;;4930197;29;20155;-78
2021/09/17 10:46:02;;;;;;;17.77;15.90;;;20.40;99.90;;;;;;4915701;29;20036;-76
2021/09/17 10:48:41;;;;;;;16.88;15.18;;;20.40;99.90;;;;;;4915219;29;20430;-77
2021/09/17 10:51:08;;;;;;;21.65;19.35;;;20.40;99.90;;;;;;4917031;29;20067;-78
2021/09/17 10:53:40;;;;;;;19.95;17.90;;;20.50;99.90;;;;;;4918417;29;20024;-78
2021/09/17 10:56:11;;;;;;;18.40;16.23;;;20.50;99.90;;;;;;4917459;29;20123;-81
2021/09/17 10:58:40;;;;;;;20.95;18.83;;;20.50;99.90;;;;;;4935500;29;20083;-77
2021/09/17 11:01:10;;;;;;;20.23;18.20;;;20.50;99.90;;;;;;4937119;29;20031;-89
2021/09/17 11:03:38;;;;;;;21.20;19.00;;;20.50;99.90;;;;;;4937719;29;20051;-85
2021/09/17 11:06:23;;;;;;;23.73;17.10;;;20.60;99.90;;;;;;4937182;29;20024;-85
2021/09/17 11:08:55;;;;;;;19.88;17.70;;;20.60;99.90;;;;;;4937349;29;20028;-82
2021/09/17 11:11:40;;;;;;;20.52;18.40;;;20.60;99.90;;;;;;4938104;29;20023;-80
2021/09/17 11:14:08;;;;;;;25.23;20.92;;;20.70;99.90;;;;;;4936621;29;20055;-80
2021/09/17 11:16:34;;;;;;;21.27;19.05;;;20.70;99.90;;;;;;4918739;29;20032;-80
2021/09/17 11:19:05;;;;;;;22.45;20.00;;;20.70;99.90;;;;;;4935145;29;20039;-81
2021/09/17 11:21:36;;;;;;;24.20;21.70;;;20.70;99.90;;;;;;4938304;29;20032;-85
2021/09/17 11:24:03;;;;;;;22.40;19.98;;;20.80;99.90;;;;;;4932951;29;20024;-79
2021/09/17 11:26:31;;;;;;;21.42;19.13;;;20.70;99.90;;;;;;4917856;29;20020;-79
2021/09/17 11:29:05;;;;;;;24.20;21.65;;;20.70;99.90;;;;;;4917240;29;20104;-78
2021/09/17 11:31:35;;;;;;;22.85;20.50;;;20.70;99.90;;;;;;4917977;29;20048;-82
2021/09/17 11:34:09;;;;;;;22.30;19.08;;;20.70;99.90;;;;;;4920964;29;20374;-88
2021/09/17 11:36:56;;;;;;;23.92;19.85;;;20.60;99.90;;;;;;4921420;29;20028;-88
2021/09/17 11:39:32;;;;;;;22.60;19.50;;;20.60;99.90;;;;;;4917083;29;20036;-91
2021/09/17 11:42:00;;;;;;;25.40;20.65;;;20.60;99.90;;;;;;4919308;29;20025;-89
2021/09/17 11:44:48;;;;;;;25.75;22.92;;;20.50;99.90;;;;;;4917795;29;20025;-88
2021/09/17 11:47:31;;;;;;;23.33;20.85;;;20.40;99.90;;;;;;4919102;29;20069;-84
2021/09/17 11:50:00;;;;;;;24.98;21.27;;;20.30;99.90;;;;;;4918797;29;20473;-79
2021/09/17 11:52:26;;;;;;;23.05;20.65;;;20.30;99.90;;;;;;4917075;29;20035;-83
2021/09/17 11:55:04;;;;;;;24.83;21.60;;;20.20;99.90;;;;;;4917489;29;20028;-87
2021/09/17 11:57:32;;;;;;;23.90;21.38;;;20.10;99.90;;;;;;4931515;29;20055;-93
2021/09/17 11:59:58;;;;;;;22.77;20.33;;;20.10;99.90;;;;;;4935567;29;20074;-84
2021/09/17 12:02:26;;;;;;;22.40;20.25;;;20.00;99.90;;;;;;4936746;29;20028;-78
2021/09/17 12:05:01;;;;;;;23.58;21.08;;;20.00;99.90;;;;;;4936743;29;20107;-75
2021/09/17 12:07:28;;;;;;;28.95;24.45;;;20.00;99.90;;;;;;4926537;29;20028;-73
2021/09/17 12:09:55;;;;;;;26.50;23.10;;;20.00;99.90;;;;;;4927711;29;20098;-74
2021/09/17 12:12:42;;;;;;;25.95;21.98;;;20.00;99.90;;;;;;4932977;29;20028;-74
2021/09/17 12:15:09;;;;;;;23.48;20.98;;;20.10;99.90;;;;;;4918010;29;20103;-73
2021/09/17 12:17:54;;;;;;;23.25;20.63;;;20.30;99.90;;;;;;4932208;29;20031;-79
2021/09/17 12:20:22;;;;;;;23.45;21.00;;;20.40;99.90;;;;;;4934953;29;20054;-78
2021/09/17 12:22:56;;;;;;;22.70;20.25;;;20.50;99.90;;;;;;4920007;29;20032;-76
2021/09/17 12:25:31;;;;;;;22.10;19.75;;;20.60;99.90;;;;;;4921824;29;20051;-77
2021/09/17 12:28:01;;;;;;;23.48;20.83;;;20.60;99.90;;;;;;4918023;29;20055;-75
2021/09/17 12:30:31;;;;;;;25.48;21.02;;;20.60;99.90;;;;;;4916557;29;20048;-74
2021/09/17 12:33:24;;;;;;;21.08;18.67;;;20.60;99.90;;;;;;4917803;29;20508;-72